»·PEaware :: N2476M L88-KSBP

N2476M :: L88-KSBP

FLIGHT INFORMATION

Flight Status: Arrived
Operator: Privately registered:
United States
More flights under this callsign
Pilot: Greg W. (23145)
Aircraft: PIPER PA-28 CHEROKEE ARCHER
(P28A)
More flights by this aircraft type
Origin: L88 New Cuyama
United States
Destination: KSBP San Luis Co Regl
United States
More flights between these airports :: More routes between these airports
Route: DCT
File this flight plan on PilotEdge
Remarks: CAT 2
Altitude:
(Current/Filed)
2,000ft
Speed:
(Current/Filed)
100kts
Departed: 26-Jan-19 11:14 AM
Arrived: 26-Jan-19 11:46 AM
Distance/Time
Traveled:
50nm/0:32
Distance/Time
To Go:
Arrived

Flight Plot

Page will automatically refresh every two minutes.


Map Options




Map Legend


Flown Route
Filed Route
Departure Airport
Arrival Airport
Navaid (VOR, NDB)
Fix

Horizontal Profiles

Position Reports

Time Latitude Longitude Heading Altitude Ground
Speed
26-Jan-19 11:02 34.942856 -119.690285 204 2156ft 0kts
26-Jan-19 11:03 34.942856 -119.690285 204 2156ft 0kts
26-Jan-19 11:04 34.942856 -119.690285 204 2156ft 0kts
26-Jan-19 11:05 34.942856 -119.690285 204 2156ft 0kts
26-Jan-19 11:06 34.942856 -119.690285 204 2156ft 0kts
26-Jan-19 11:07 34.942856 -119.690285 204 2156ft 0kts
26-Jan-19 11:08 34.942856 -119.690285 204 2156ft 0kts
26-Jan-19 11:09 34.942856 -119.690285 204 2156ft 0kts
26-Jan-19 11:10 34.942836 -119.690381 274 2156ft 0kts
26-Jan-19 11:11 34.942793 -119.691138 212 2154ft 0kts
26-Jan-19 11:12 34.942793 -119.691138 212 2154ft 0kts
26-Jan-19 11:13 34.941037 -119.688204 116 2164ft 60kts
26-Jan-19 11:14 34.931719 -119.668683 147 2958ft 65kts
26-Jan-19 11:15 34.923322 -119.678979 240 3777ft 69kts
26-Jan-19 11:16 34.933255 -119.701016 303 4473ft 92kts
26-Jan-19 11:17 34.944799 -119.733054 273 4154ft 111kts
26-Jan-19 11:18 34.948342 -119.766828 230 4036ft 107kts
26-Jan-19 11:19 34.950949 -119.795621 303 4028ft 97kts
26-Jan-19 11:20 34.967302 -119.822956 301 4266ft 110kts
26-Jan-19 11:21 34.986161 -119.852994 312 4206ft 112kts
26-Jan-19 11:22 35.006349 -119.881811 316 4171ft 112kts
26-Jan-19 11:23 35.020803 -119.914857 290 4138ft 111kts
26-Jan-19 11:24 35.034609 -119.948084 294 4137ft 104kts
26-Jan-19 11:25 35.051841 -119.977040 316 4169ft 103kts
26-Jan-19 11:26 35.063908 -120.009817 285 4313ft 106kts
26-Jan-19 11:27 35.072461 -120.045286 287 4354ft 109kts
26-Jan-19 11:28 35.078330 -120.081898 285 4368ft 111kts
26-Jan-19 11:29 35.087657 -120.118304 287 4314ft 112kts
26-Jan-19 11:30 35.097392 -120.155473 287 4139ft 114kts
26-Jan-19 11:31 35.107112 -120.192583 287 3981ft 114kts
26-Jan-19 11:32 35.116851 -120.229761 287 3831ft 114kts
26-Jan-19 11:33 35.126625 -120.267059 287 3537ft 117kts
26-Jan-19 11:34 35.136546 -120.304918 287 3109ft 116kts
26-Jan-19 11:35 35.146365 -120.342388 287 2693ft 115kts
26-Jan-19 11:36 35.156142 -120.379694 287 2295ft 115kts
26-Jan-19 11:37 35.165490 -120.415379 287 1981ft 98kts
26-Jan-19 11:38 35.173880 -120.447504 287 1739ft 99kts
26-Jan-19 11:39 35.182007 -120.478650 287 1719ft 95kts
26-Jan-19 11:40 35.190577 -120.509546 290 1700ft 95kts
26-Jan-19 11:41 35.199995 -120.540503 289 1593ft 96kts
26-Jan-19 11:42 35.209440 -120.572723 289 1270ft 102kts
26-Jan-19 11:43 35.217556 -120.600430 289 906ft 78kts
26-Jan-19 11:44 35.225791 -120.621124 304 508ft 60kts
26-Jan-19 11:45 35.234745 -120.636394 306 215ft 38kts
26-Jan-19 11:46 35.237712 -120.639966 319 215ft 7kts
26-Jan-19 11:47 35.239908 -120.642505 311 215ft 0kts
26-Jan-19 11:48 35.239908 -120.642505 311 215ft 0kts
26-Jan-19 11:49 35.239908 -120.642505 311 215ft 0kts
26-Jan-19 11:50 35.239908 -120.642505 311 215ft 0kts
26-Jan-19 11:51 35.239908 -120.642505 311 215ft 0kts
26-Jan-19 11:52 35.239908 -120.642505 311 215ft 0kts
26-Jan-19 11:53 35.239908 -120.642505 311 215ft 0kts
26-Jan-19 11:54 35.239908 -120.642505 311 215ft 0kts
26-Jan-19 11:55 35.239908 -120.642505 311 215ft 0kts
26-Jan-19 11:56 35.239908 -120.642505 311 215ft 0kts
26-Jan-19 11:57 35.239908 -120.642504 311 215ft 0kts
26-Jan-19 11:58 35.239908 -120.642504 311 215ft 0kts
26-Jan-19 11:59 35.239908 -120.642504 311 215ft 0kts

Navigation Log

Ident Type
Flight plan parsing failed, navigation log unavailable